Time;durP1;ratioP1;P1;durP2;ratioP2;P2;SDS_P1;SDS_P2;PMS_P1;PMS_P2;Temp;Humidity;BMP_temperature;BMP_pressure;BME280_temperature;BME280_humidity;BME280_pressure;Samples;Min_cycle;Max_cycle;Signal;HPM_P1;HPM_P2
2023/04/30 00:02:10;;;;;;;10.20;4.60;;;9.90;86.40;;;;;;5071426;28;20059;-74
2023/04/30 00:04:35;;;;;;;11.17;5.00;;;9.80;86.60;;;;;;5072893;28;20052;-74
2023/04/30 00:07:01;;;;;;;9.77;4.33;;;9.80;86.70;;;;;;5076824;28;20028;-74
2023/04/30 00:09:27;;;;;;;7.47;4.00;;;9.80;86.90;;;;;;5075786;28;20040;-74
2023/04/30 00:11:52;;;;;;;12.33;4.70;;;9.80;87.20;;;;;;5075266;28;20380;-74
2023/04/30 00:14:19;;;;;;;9.07;4.97;;;9.80;87.30;;;;;;5075324;28;20036;-74
2023/04/30 00:16:45;;;;;;;9.77;4.53;;;9.80;87.60;;;;;;5076523;28;20334;-76
2023/04/30 00:19:11;;;;;;;8.43;4.03;;;9.80;87.80;;;;;;5076663;28;20032;-76
2023/04/30 00:21:36;;;;;;;7.47;4.20;;;9.70;87.80;;;;;;5075176;28;20025;-74
2023/04/30 00:24:02;;;;;;;11.83;4.53;;;9.70;87.90;;;;;;5076483;28;20032;-76
2023/04/30 00:26:28;;;;;;;9.17;3.83;;;9.70;88.00;;;;;;5075278;28;20076;-74
2023/04/30 00:28:54;;;;;;;9.23;4.30;;;9.70;88.00;;;;;;5076022;28;20036;-74
2023/04/30 00:31:20;;;;;;;8.53;4.67;;;9.70;88.30;;;;;;5075164;28;20112;-76
2023/04/30 00:33:45;;;;;;;8.03;4.63;;;9.60;88.50;;;;;;5076183;28;20036;-74
2023/04/30 00:36:11;;;;;;;7.77;3.93;;;9.60;88.40;;;;;;5074879;28;20071;-74
2023/04/30 00:38:37;;;;;;;8.03;4.20;;;9.60;88.50;;;;;;5074835;28;20016;-74
2023/04/30 00:41:03;;;;;;;9.33;4.87;;;9.60;88.80;;;;;;5075027;28;20487;-74
2023/04/30 00:43:29;;;;;;;9.10;4.13;;;9.60;89.00;;;;;;5074676;28;20032;-74
2023/04/30 00:45:54;;;;;;;7.13;4.03;;;9.50;89.10;;;;;;5075994;28;20021;-74
2023/04/30 00:48:20;;;;;;;6.80;3.73;;;9.50;89.30;;;;;;5074805;28;20033;-78
2023/04/30 00:50:46;;;;;;;11.67;4.57;;;9.40;89.50;;;;;;5076003;28;20025;-79
2023/04/30 00:53:12;;;;;;;10.80;4.97;;;9.50;89.80;;;;;;5075838;28;20461;-79
2023/04/30 00:55:39;;;;;;;9.30;4.30;;;9.40;89.80;;;;;;5075767;28;20021;-79
2023/04/30 00:58:06;;;;;;;11.63;4.47;;;9.40;90.00;;;;;;5074478;28;20020;-80
2023/04/30 01:00:33;;;;;;;7.57;4.27;;;9.40;90.00;;;;;;5074650;28;20127;-80
2023/04/30 01:02:59;;;;;;;11.40;5.10;;;9.30;90.10;;;;;;5069488;28;20041;-80
2023/04/30 01:05:25;;;;;;;7.50;4.40;;;9.30;90.20;;;;;;5075784;28;20021;-80
2023/04/30 01:07:51;;;;;;;8.63;4.70;;;9.30;90.30;;;;;;5075574;28;20028;-81
2023/04/30 01:10:17;;;;;;;9.67;4.70;;;9.30;90.40;;;;;;5075833;28;20116;-81
2023/04/30 01:12:57;;;;;;;10.37;5.20;;;9.20;90.50;;;;;;5074713;28;20040;-80
2023/04/30 01:15:54;;;;;;;8.53;4.87;;;9.20;90.60;;;;;;5074290;28;20439;-80
2023/04/30 01:18:30;;;;;;;7.80;4.27;;;9.20;90.70;;;;;;5074306;28;20380;-80
2023/04/30 01:21:04;;;;;;;10.13;4.60;;;9.20;90.70;;;;;;5075629;28;20032;-80
2023/04/30 01:23:54;;;;;;;12.80;4.43;;;9.20;90.80;;;;;;5075581;28;20119;-80
2023/04/30 01:27:00;;;;;;;9.47;4.47;;;9.20;90.90;;;;;;5075564;28;20044;-80
2023/04/30 01:29:26;;;;;;;10.87;4.43;;;9.20;90.90;;;;;;5074162;28;20055;-80
2023/04/30 01:31:52;;;;;;;8.40;4.20;;;9.20;91.00;;;;;;5072073;28;20052;-80
2023/04/30 01:34:17;;;;;;;7.73;3.87;;;9.10;91.00;;;;;;5075336;28;20028;-80
2023/04/30 01:36:43;;;;;;;7.50;3.60;;;9.10;91.10;;;;;;5074728;28;20482;-80
2023/04/30 01:39:22;;;;;;;7.87;4.27;;;9.10;91.20;;;;;;5075210;28;20020;-80
2023/04/30 01:42:15;;;;;;;7.83;3.70;;;9.00;91.30;;;;;;5073704;28;20024;-80
2023/04/30 01:45:28;;;;;;;8.97;4.03;;;9.00;91.40;;;;;;5074955;28;20095;-80
2023/04/30 01:48:07;;;;;;;7.53;4.03;;;9.00;91.50;;;;;;5075035;28;20512;-80
2023/04/30 01:50:41;;;;;;;9.60;3.70;;;9.00;91.60;;;;;;5073659;28;20036;-80
2023/04/30 01:53:12;;;;;;;8.32;3.90;;;8.90;91.60;;;;;;5073551;28;20380;-80
2023/04/30 01:56:01;;;;;;;8.53;4.93;;;8.90;91.80;;;;;;5073550;28;20027;-80
2023/04/30 01:58:26;;;;;;;10.47;4.90;;;8.90;91.90;;;;;;5074697;28;20033;-75
2023/04/30 02:00:52;;;;;;;9.50;4.47;;;8.90;92.00;;;;;;5056925;28;20025;-75
2023/04/30 02:03:18;;;;;;;7.33;4.00;;;8.90;92.00;;;;;;5074737;28;20431;-75
2023/04/30 02:05:43;;;;;;;9.73;4.40;;;8.90;92.10;;;;;;5075060;28;20097;-75
2023/04/30 02:08:09;;;;;;;8.67;4.30;;;8.90;92.30;;;;;;5074640;28;20033;-75
2023/04/30 02:10:35;;;;;;;10.67;5.27;;;8.90;92.20;;;;;;5073333;28;20496;-75
2023/04/30 02:13:00;;;;;;;10.10;5.33;;;8.90;92.30;;;;;;5073423;28;20114;-75
2023/04/30 02:15:26;;;;;;;8.43;4.03;;;8.90;92.30;;;;;;5074470;28;20047;-75
2023/04/30 02:17:52;;;;;;;8.83;4.60;;;8.80;92.40;;;;;;5056423;28;20389;-75
2023/04/30 02:20:17;;;;;;;8.67;4.97;;;8.70;92.40;;;;;;5073088;28;20039;-74
2023/04/30 02:22:43;;;;;;;10.07;4.83;;;8.80;92.50;;;;;;5073103;28;20024;-74
2023/04/30 02:25:11;;;;;;;7.70;4.20;;;8.80;92.70;;;;;;5073058;28;20135;-74
2023/04/30 02:27:37;;;;;;;8.60;4.30;;;8.80;92.70;;;;;;5073476;28;20036;-74
2023/04/30 02:30:03;;;;;;;7.50;3.97;;;8.80;92.80;;;;;;5074045;28;20037;-74
2023/04/30 02:32:29;;;;;;;7.37;3.83;;;8.70;92.80;;;;;;5072826;28;20365;-79
2023/04/30 02:34:55;;;;;;;10.83;4.00;;;8.70;92.80;;;;;;5074026;28;20028;-79
2023/04/30 02:37:21;;;;;;;7.30;3.93;;;8.70;92.90;;;;;;5073773;28;20082;-79
2023/04/30 02:39:47;;;;;;;8.83;4.07;;;8.60;92.90;;;;;;5074040;28;20035;-79
2023/04/30 02:42:12;;;;;;;8.37;4.07;;;8.60;93.00;;;;;;5069796;28;20020;-80
2023/04/30 02:44:38;;;;;;;6.37;4.00;;;8.60;93.10;;;;;;5073587;28;20082;-80
2023/04/30 02:47:04;;;;;;;10.03;5.33;;;8.60;93.20;;;;;;5071964;28;20112;-79
2023/04/30 02:49:30;;;;;;;8.67;4.27;;;8.50;93.30;;;;;;5072386;28;20472;-79
2023/04/30 02:51:55;;;;;;;10.53;4.67;;;8.50;93.40;;;;;;5073763;28;20036;-79
2023/04/30 02:54:21;;;;;;;10.07;4.40;;;8.50;93.50;;;;;;5072505;28;20031;-79
2023/04/30 02:56:46;;;;;;;7.93;4.40;;;8.50;93.50;;;;;;5072364;28;20044;-80
2023/04/30 02:59:12;;;;;;;9.97;4.67;;;8.50;93.70;;;;;;5071602;28;20032;-79
2023/04/30 03:01:38;;;;;;;7.50;4.20;;;8.50;93.70;;;;;;5073656;28;20017;-79
2023/04/30 03:04:04;;;;;;;9.80;4.83;;;8.50;93.90;;;;;;5073532;28;20063;-79
2023/04/30 03:06:30;;;;;;;8.53;4.40;;;8.40;94.00;;;;;;5073689;28;20085;-80
2023/04/30 03:08:57;;;;;;;7.77;4.27;;;8.50;94.10;;;;;;5072341;28;20035;-80
2023/04/30 03:11:22;;;;;;;7.40;4.20;;;8.40;94.20;;;;;;5073703;28;20032;-79
2023/04/30 03:13:51;;;;;;;10.63;4.97;;;8.40;94.30;;;;;;5073502;28;20408;-79
2023/04/30 03:16:18;;;;;;;8.63;4.60;;;8.40;94.40;;;;;;5073409;28;20602;-79
2023/04/30 03:18:47;;;;;;;10.07;4.33;;;8.30;94.50;;;;;;5072174;28;20388;-80
2023/04/30 03:21:14;;;;;;;8.60;4.30;;;8.40;94.70;;;;;;5072045;28;20025;-79
2023/04/30 03:23:39;;;;;;;8.43;4.83;;;8.30;94.80;;;;;;5073408;28;20067;-80
2023/04/30 03:26:05;;;;;;;8.93;4.73;;;8.30;94.90;;;;;;5072071;28;20492;-79
2023/04/30 03:28:31;;;;;;;9.47;4.60;;;8.30;95.00;;;;;;5071661;28;20031;-79
2023/04/30 03:30:58;;;;;;;11.90;5.00;;;8.30;95.00;;;;;;5071930;28;20095;-80
2023/04/30 03:33:23;;;;;;;9.70;4.67;;;8.30;95.20;;;;;;5071984;28;20473;-79
2023/04/30 03:35:50;;;;;;;11.77;5.23;;;8.30;95.20;;;;;;5071890;28;20057;-79
2023/04/30 03:38:16;;;;;;;10.10;5.03;;;8.30;95.40;;;;;;5072825;28;20388;-79
2023/04/30 03:40:42;;;;;;;13.03;5.10;;;8.20;95.40;;;;;;5072959;28;20024;-80
2023/04/30 03:43:07;;;;;;;11.83;5.50;;;8.20;95.50;;;;;;5071820;28;20033;-79
2023/04/30 03:45:33;;;;;;;10.10;4.97;;;8.30;95.70;;;;;;5073054;28;20040;-79
2023/04/30 03:47:59;;;;;;;10.40;5.27;;;8.20;95.70;;;;;;5071727;28;20473;-79
2023/04/30 03:50:24;;;;;;;10.33;5.20;;;8.20;95.80;;;;;;5072996;28;20382;-80
2023/04/30 03:52:50;;;;;;;10.23;5.20;;;8.10;95.80;;;;;;5072929;28;20086;-80
2023/04/30 03:55:16;;;;;;;12.53;5.77;;;8.20;96.00;;;;;;5072790;28;20115;-79
2023/04/30 03:57:42;;;;;;;11.77;5.07;;;8.10;96.10;;;;;;5072721;28;20381;-79
2023/04/30 04:00:12;;;;;;;10.83;5.37;;;8.10;96.20;;;;;;5072868;28;20063;-80
2023/04/30 04:02:38;;;;;;;8.97;4.67;;;8.10;96.30;;;;;;5072820;28;20035;-79
2023/04/30 04:05:04;;;;;;;10.10;5.33;;;8.10;96.40;;;;;;5072824;28;20032;-80
2023/04/30 04:07:30;;;;;;;13.70;6.93;;;8.10;96.60;;;;;;5072914;28;20040;-80
2023/04/30 04:09:56;;;;;;;11.77;6.20;;;8.10;96.80;;;;;;5072762;28;20035;-80
2023/04/30 04:12:22;;;;;;;11.63;6.30;;;8.10;96.70;;;;;;5072709;28;20032;-80
2023/04/30 04:14:48;;;;;;;11.77;6.30;;;8.10;96.90;;;;;;5071451;28;20116;-79
2023/04/30 04:17:13;;;;;;;10.80;6.00;;;8.10;97.20;;;;;;5072513;28;20178;-79
2023/04/30 04:19:39;;;;;;;11.37;5.63;;;8.10;97.10;;;;;;5072783;28;20029;-79
2023/04/30 04:22:05;;;;;;;12.60;5.73;;;8.10;97.10;;;;;;5072621;28;20029;-79
2023/04/30 04:24:32;;;;;;;11.23;6.23;;;8.10;97.20;;;;;;5072605;28;20032;-79
2023/04/30 04:26:58;;;;;;;10.80;5.77;;;8.10;97.20;;;;;;5071324;28;20036;-79
2023/04/30 04:29:24;;;;;;;13.13;6.37;;;8.10;97.30;;;;;;5071090;28;20052;-79
2023/04/30 04:31:50;;;;;;;12.60;6.00;;;8.00;97.30;;;;;;5071349;28;20036;-79
2023/04/30 04:34:16;;;;;;;10.93;5.30;;;8.10;97.40;;;;;;5071226;28;20111;-79
2023/04/30 04:36:42;;;;;;;12.03;5.97;;;8.10;97.50;;;;;;5072269;28;20126;-74
2023/04/30 04:39:07;;;;;;;10.43;5.77;;;8.10;97.60;;;;;;5072413;28;20039;-74
2023/04/30 04:41:36;;;;;;;13.60;6.50;;;8.10;97.70;;;;;;5072509;28;20028;-73
2023/04/30 04:44:03;;;;;;;10.23;6.50;;;8.10;97.80;;;;;;5071266;28;20029;-74
2023/04/30 04:46:30;;;;;;;14.40;6.63;;;8.10;97.90;;;;;;5072270;28;20021;-74
2023/04/30 04:48:56;;;;;;;12.40;6.87;;;8.10;98.00;;;;;;5072230;28;20082;-74
2023/04/30 04:51:22;;;;;;;11.87;6.67;;;8.10;98.00;;;;;;5073890;28;20111;-74
2023/04/30 04:53:48;;;;;;;11.20;6.07;;;8.10;98.10;;;;;;5074744;28;20075;-74
2023/04/30 04:56:13;;;;;;;13.67;6.40;;;8.10;98.20;;;;;;5074653;28;20036;-74
2023/04/30 04:58:41;;;;;;;9.93;6.70;;;8.10;98.30;;;;;;5057792;28;20086;-74
2023/04/30 05:01:08;;;;;;;13.30;6.37;;;8.10;98.40;;;;;;5075821;28;20058;-74
2023/04/30 05:03:35;;;;;;;11.60;6.53;;;8.20;98.50;;;;;;5074436;28;20051;-74
2023/04/30 05:06:02;;;;;;;13.30;6.83;;;8.20;98.60;;;;;;5075757;28;20709;-74
2023/04/30 05:08:27;;;;;;;10.40;6.57;;;8.20;98.90;;;;;;5075573;28;20493;-74
2023/04/30 05:10:53;;;;;;;12.30;7.77;;;8.20;98.70;;;;;;5075784;28;20072;-74
2023/04/30 05:13:19;;;;;;;13.90;6.97;;;8.30;98.90;;;;;;5075446;28;20477;-74
2023/04/30 05:15:44;;;;;;;12.77;7.13;;;8.30;98.90;;;;;;5075576;28;20384;-74
2023/04/30 05:18:10;;;;;;;11.93;7.63;;;8.30;99.00;;;;;;5057651;28;20029;-74
2023/04/30 05:20:35;;;;;;;13.10;6.73;;;8.30;99.00;;;;;;5075484;28;20086;-74
2023/04/30 05:23:02;;;;;;;11.07;7.00;;;8.40;99.10;;;;;;5075418;28;20104;-74
2023/04/30 05:25:28;;;;;;;12.73;6.97;;;8.40;99.10;;;;;;5075216;28;20045;-74
2023/04/30 05:27:55;;;;;;;14.90;7.50;;;8.40;99.20;;;;;;5075317;28;20090;-74
2023/04/30 05:30:21;;;;;;;12.10;7.63;;;8.40;99.30;;;;;;5073715;28;20040;-74
2023/04/30 05:32:49;;;;;;;12.47;7.37;;;8.50;99.40;;;;;;5055523;28;20381;-74
2023/04/30 05:35:16;;;;;;;12.53;7.20;;;8.50;99.40;;;;;;5071053;28;20493;-74
2023/04/30 05:37:41;;;;;;;11.53;6.57;;;8.50;99.50;;;;;;5070473;28;20044;-74
2023/04/30 05:40:08;;;;;;;13.23;6.90;;;8.50;99.50;;;;;;5073009;28;20036;-74
2023/04/30 05:42:34;;;;;;;13.17;7.67;;;8.60;99.60;;;;;;5038352;28;20029;-74
2023/04/30 05:45:01;;;;;;;13.03;7.50;;;8.50;99.60;;;;;;5069574;28;20393;-74
2023/04/30 05:47:26;;;;;;;13.67;6.47;;;8.70;99.60;;;;;;5054233;28;20495;-74
2023/04/30 05:49:52;;;;;;;12.13;6.50;;;8.70;99.70;;;;;;5054984;28;20108;-74
2023/04/30 05:52:18;;;;;;;11.17;6.33;;;8.70;99.70;;;;;;5054864;28;20104;-74
2023/04/30 05:54:43;;;;;;;10.13;6.30;;;8.80;99.80;;;;;;5070177;28;20437;-74
2023/04/30 05:57:09;;;;;;;12.17;6.37;;;8.80;99.70;;;;;;5054664;28;20037;-75
2023/04/30 05:59:35;;;;;;;13.47;6.80;;;8.90;99.80;;;;;;5054883;28;20033;-74
2023/04/30 06:02:00;;;;;;;13.53;7.70;;;8.90;99.80;;;;;;5052968;28;20025;-73
2023/04/30 06:04:26;;;;;;;11.20;6.97;;;9.00;99.80;;;;;;5069524;28;20035;-74
2023/04/30 06:06:51;;;;;;;14.53;7.37;;;9.00;99.70;;;;;;5070024;28;20405;-75
2023/04/30 06:09:17;;;;;;;16.47;7.87;;;9.00;99.70;;;;;;5069960;28;20056;-74
2023/04/30 06:11:47;;;;;;;10.33;6.97;;;9.10;99.70;;;;;;5053213;28;20044;-73
2023/04/30 06:14:13;;;;;;;12.40;7.00;;;9.10;99.70;;;;;;5062980;28;20032;-73
2023/04/30 06:16:39;;;;;;;11.50;5.87;;;9.10;99.60;;;;;;5073541;28;20047;-73
2023/04/30 06:19:04;;;;;;;13.03;7.50;;;9.20;99.70;;;;;;5072562;28;20090;-73
2023/04/30 06:21:30;;;;;;;10.97;6.97;;;9.20;99.70;;;;;;5072458;28;20037;-73
2023/04/30 06:23:56;;;;;;;12.00;7.00;;;9.30;99.70;;;;;;5074524;28;20448;-73
2023/04/30 06:26:21;;;;;;;12.37;7.40;;;9.20;99.60;;;;;;5074305;28;20029;-72
2023/04/30 06:28:47;;;;;;;13.43;7.57;;;9.30;99.50;;;;;;5072966;28;20041;-73
2023/04/30 06:31:13;;;;;;;10.27;6.50;;;9.30;99.40;;;;;;5073363;28;20094;-72
2023/04/30 06:33:39;;;;;;;12.60;7.27;;;9.40;99.40;;;;;;5074281;28;20028;-72
2023/04/30 06:36:05;;;;;;;13.23;6.73;;;9.50;99.40;;;;;;5056393;28;20532;-72
2023/04/30 06:38:30;;;;;;;10.93;6.23;;;9.50;99.40;;;;;;5074172;28;20124;-72
2023/04/30 06:40:56;;;;;;;9.40;5.97;;;9.60;99.40;;;;;;5074264;28;20083;-72
2023/04/30 06:43:21;;;;;;;9.80;6.07;;;9.60;99.30;;;;;;5073050;28;20028;-73
2023/04/30 06:45:47;;;;;;;11.50;6.37;;;9.60;99.30;;;;;;5074360;28;20387;-73
2023/04/30 06:48:13;;;;;;;10.33;5.57;;;9.60;99.20;;;;;;5072575;28;20028;-73
2023/04/30 06:50:43;;;;;;;10.93;5.80;;;9.70;99.30;;;;;;5073805;28;20104;-73
2023/04/30 06:53:13;;;;;;;13.00;6.70;;;9.70;99.20;;;;;;5072951;28;20107;-79
2023/04/30 06:55:40;;;;;;;11.63;6.77;;;9.70;99.10;;;;;;5074017;28;20044;-80
2023/04/30 06:58:05;;;;;;;13.50;7.13;;;9.80;99.10;;;;;;5072326;28;20086;-80
2023/04/30 07:00:31;;;;;;;16.73;7.10;;;9.80;99.00;;;;;;5073049;28;20488;-80
2023/04/30 07:03:01;;;;;;;10.27;6.20;;;9.90;98.90;;;;;;5072446;28;20028;-79
2023/04/30 07:05:27;;;;;;;13.73;6.73;;;9.90;98.80;;;;;;5072471;28;20507;-79
2023/04/30 07:07:53;;;;;;;10.33;5.83;;;10.00;98.80;;;;;;5072218;28;20086;-79
2023/04/30 07:10:18;;;;;;;11.50;6.63;;;9.90;98.80;;;;;;5073443;28;20067;-79
2023/04/30 07:12:44;;;;;;;12.20;6.47;;;10.00;98.80;;;;;;5072237;28;20119;-79
2023/04/30 07:15:10;;;;;;;13.37;6.27;;;10.00;98.80;;;;;;5073254;28;20035;-80
2023/04/30 07:17:37;;;;;;;11.07;6.70;;;10.10;98.80;;;;;;5073422;28;20033;-79
2023/04/30 07:20:03;;;;;;;10.43;5.80;;;10.10;99.00;;;;;;5073528;28;20477;-81
2023/04/30 07:22:30;;;;;;;11.87;6.47;;;10.10;98.70;;;;;;5073654;28;20025;-81
2023/04/30 07:24:56;;;;;;;13.80;6.73;;;10.20;98.70;;;;;;5073488;28;20032;-74
2023/04/30 07:27:22;;;;;;;12.23;7.20;;;10.30;98.60;;;;;;5073640;28;20028;-73
2023/04/30 07:29:48;;;;;;;13.23;7.50;;;10.30;98.60;;;;;;5073157;28;20052;-73
2023/04/30 07:32:15;;;;;;;10.37;5.97;;;10.40;98.50;;;;;;5055657;28;20029;-73
2023/04/30 07:34:41;;;;;;;11.17;6.70;;;10.40;98.50;;;;;;5073708;28;20388;-73
2023/04/30 07:37:08;;;;;;;11.60;6.63;;;10.50;98.50;;;;;;5072135;28;20039;-75
2023/04/30 07:39:34;;;;;;;10.17;6.40;;;10.50;98.40;;;;;;5073463;28;20025;-76
2023/04/30 07:42:02;;;;;;;10.83;5.53;;;10.50;98.40;;;;;;5071709;28;20145;-73
2023/04/30 07:44:27;;;;;;;9.40;5.70;;;10.50;98.30;;;;;;5072333;28;20035;-74
2023/04/30 07:46:53;;;;;;;10.17;5.97;;;10.60;98.30;;;;;;5072117;28;20121;-73
2023/04/30 07:49:18;;;;;;;12.70;6.07;;;10.60;98.40;;;;;;5072074;28;20071;-73
2023/04/30 07:51:45;;;;;;;9.77;6.43;;;10.60;98.40;;;;;;5073305;28;20025;-74
2023/04/30 07:54:12;;;;;;;10.53;6.47;;;10.70;98.50;;;;;;5073252;28;20036;-74
2023/04/30 07:56:38;;;;;;;12.37;6.17;;;10.70;98.50;;;;;;5071237;28;20032;-74
2023/04/30 07:59:04;;;;;;;10.73;5.93;;;10.70;98.50;;;;;;5069422;28;20047;-76
2023/04/30 08:01:30;;;;;;;10.80;6.10;;;10.80;98.50;;;;;;5069098;28;20139;-75
2023/04/30 08:03:55;;;;;;;15.20;6.07;;;10.80;98.50;;;;;;5069931;28;20108;-77
2023/04/30 08:06:21;;;;;;;10.20;5.30;;;10.80;98.50;;;;;;5069807;28;20029;-75
2023/04/30 08:08:47;;;;;;;13.23;6.05;;;10.90;98.50;;;;;;5070940;28;20441;-74
2023/04/30 08:11:14;;;;;;;12.38;5.93;;;10.90;98.50;;;;;;5069891;28;20645;-75
2023/04/30 08:13:40;;;;;;;10.52;5.60;;;11.00;98.50;;;;;;5053750;28;20028;-75
2023/04/30 08:16:06;;;;;;;9.55;5.38;;;11.10;98.50;;;;;;5072834;28;20035;-74
2023/04/30 08:18:32;;;;;;;11.88;5.80;;;11.10;98.40;;;;;;5071351;28;20024;-75
2023/04/30 08:20:59;;;;;;;10.00;5.55;;;11.20;98.40;;;;;;5071509;28;20039;-75
2023/04/30 08:23:25;;;;;;;10.82;5.93;;;11.30;98.40;;;;;;5055025;28;20059;-75
2023/04/30 08:25:51;;;;;;;9.82;5.70;;;11.30;98.40;;;;;;5073261;28;20029;-74
2023/04/30 08:28:17;;;;;;;12.68;5.95;;;11.40;98.40;;;;;;5075478;28;20024;-75
2023/04/30 08:30:43;;;;;;;10.43;6.10;;;11.40;98.30;;;;;;5075375;28;20040;-75
2023/04/30 08:33:08;;;;;;;8.95;5.43;;;11.50;98.20;;;;;;5075383;28;20043;-74
2023/04/30 08:35:34;;;;;;;10.10;5.40;;;11.60;98.10;;;;;;5076343;28;20044;-74
2023/04/30 08:38:00;;;;;;;9.75;4.97;;;11.60;98.00;;;;;;5076176;28;20032;-75
2023/04/30 08:40:26;;;;;;;7.10;4.75;;;11.70;97.90;;;;;;5076383;28;20028;-75
2023/04/30 08:43:10;;;;;;;7.60;4.50;;;11.70;97.80;;;;;;5076163;28;20036;-75
2023/04/30 08:45:36;;;;;;;9.23;4.40;;;11.90;97.80;;;;;;5074975;28;20024;-75
2023/04/30 08:48:06;;;;;;;10.20;4.38;;;11.90;97.60;;;;;;5074988;28;20029;-74
2023/04/30 08:50:33;;;;;;;11.25;4.82;;;12.00;97.60;;;;;;5076158;28;20083;-75
2023/04/30 08:53:00;;;;;;;8.43;4.18;;;12.10;97.40;;;;;;5074810;28;20081;-75
2023/04/30 08:55:26;;;;;;;8.30;4.00;;;12.10;97.20;;;;;;5074779;28;20385;-75
2023/04/30 08:57:52;;;;;;;7.53;4.38;;;12.20;97.10;;;;;;5057848;28;20029;-75
2023/04/30 09:00:18;;;;;;;10.10;4.05;;;12.20;96.90;;;;;;5058230;28;20021;-75
2023/04/30 09:02:45;;;;;;;8.80;3.85;;;12.30;96.80;;;;;;5074578;28;20025;-76
2023/04/30 09:05:13;;;;;;;7.63;4.53;;;12.40;96.70;;;;;;5074663;28;20024;-85
2023/04/30 09:07:43;;;;;;;9.88;5.05;;;12.40;96.50;;;;;;5074519;28;20034;-83
2023/04/30 09:10:21;;;;;;;7.43;3.97;;;12.50;96.30;;;;;;5074492;28;20032;-85
2023/04/30 09:13:03;;;;;;;7.03;4.55;;;12.60;96.10;;;;;;5075561;28;20077;-83
2023/04/30 09:15:30;;;;;;;7.80;3.92;;;12.70;95.90;;;;;;5075672;28;20495;-74
2023/04/30 09:18:11;;;;;;;7.90;4.38;;;12.80;95.80;;;;;;5075579;28;20021;-74
2023/04/30 09:20:37;;;;;;;8.05;3.83;;;12.80;95.50;;;;;;5075731;28;20016;-74
2023/04/30 09:23:10;;;;;;;6.38;3.47;;;12.90;95.30;;;;;;5075398;28;20086;-76
2023/04/30 09:25:41;;;;;;;6.80;3.45;;;12.90;95.00;;;;;;5074537;28;20074;-77
2023/04/30 09:28:11;;;;;;;6.85;3.35;;;13.00;94.90;;;;;;5074778;28;20021;-77
2023/04/30 09:30:37;;;;;;;7.63;3.85;;;13.10;94.90;;;;;;5074157;28;20053;-77
2023/04/30 09:33:03;;;;;;;7.50;3.58;;;13.20;94.60;;;;;;5075652;28;20029;-75
2023/04/30 09:35:43;;;;;;;7.00;3.20;;;13.30;94.50;;;;;;5057441;28;20040;-75
2023/04/30 09:38:25;;;;;;;6.43;3.17;;;13.40;94.40;;;;;;5059024;28;20039;-77
2023/04/30 09:40:51;;;;;;;6.40;3.55;;;13.40;94.00;;;;;;5074113;28;20025;-75
2023/04/30 09:43:17;;;;;;;6.20;2.97;;;13.50;93.90;;;;;;5075332;28;20488;-75
2023/04/30 09:45:48;;;;;;;7.13;3.47;;;13.60;93.70;;;;;;5074048;28;20021;-75
2023/04/30 09:48:20;;;;;;;7.30;3.90;;;13.70;93.60;;;;;;5057621;28;20029;-75
2023/04/30 09:50:46;;;;;;;5.00;2.70;;;13.80;93.40;;;;;;5075196;28;20025;-75
2023/04/30 09:53:13;;;;;;;6.05;3.03;;;13.80;93.30;;;;;;5070722;28;20365;-78
2023/04/30 09:55:42;;;;;;;5.93;3.20;;;13.90;93.00;;;;;;5055613;28;20060;-76
2023/04/30 09:58:09;;;;;;;6.95;3.03;;;14.00;92.80;;;;;;5054707;28;20029;-77
2023/04/30 10:00:36;;;;;;;6.80;2.97;;;14.10;92.60;;;;;;5055170;28;20135;-77
2023/04/30 10:03:07;;;;;;;8.10;2.90;;;14.20;92.40;;;;;;5053733;28;20017;-76
2023/04/30 10:05:37;;;;;;;4.78;2.45;;;14.20;92.40;;;;;;5053538;28;20052;-84
2023/04/30 10:08:06;;;;;;;4.15;2.50;;;14.30;91.90;;;;;;5053642;28;20112;-83
2023/04/30 10:10:32;;;;;;;5.97;2.75;;;14.40;91.70;;;;;;5054959;28;20131;-84
2023/04/30 10:13:03;;;;;;;4.18;2.50;;;14.50;91.40;;;;;;5036952;28;20029;-83
2023/04/30 10:15:38;;;;;;;5.57;2.72;;;14.60;91.10;;;;;;5054602;28;20025;-85
2023/04/30 10:18:07;;;;;;;6.45;2.75;;;14.70;90.90;;;;;;5053417;28;20028;-85
2023/04/30 10:20:35;;;;;;;3.65;1.98;;;14.80;90.60;;;;;;5054757;28;20096;-84
2023/04/30 10:23:01;;;;;;;5.13;2.05;;;15.00;90.20;;;;;;5054975;28;20021;-84
2023/04/30 10:25:28;;;;;;;7.47;2.50;;;15.20;89.90;;;;;;5036752;28;20024;-84
2023/04/30 10:27:53;;;;;;;4.20;2.17;;;15.40;89.20;;;;;;5053262;28;20527;-84
2023/04/30 10:30:21;;;;;;;4.32;2.00;;;15.50;88.50;;;;;;5053013;28;20109;-84
2023/04/30 10:33:00;;;;;;;4.43;1.98;;;15.70;87.90;;;;;;5054356;28;20033;-84
2023/04/30 10:35:29;;;;;;;4.38;2.08;;;15.90;86.90;;;;;;5053435;28;20115;-84
2023/04/30 10:38:17;;;;;;;7.03;2.17;;;16.10;86.20;;;;;;5054176;28;20037;-77
2023/04/30 10:40:46;;;;;;;4.65;2.10;;;16.40;85.00;;;;;;5053056;28;20027;-77
2023/04/30 10:43:11;;;;;;;3.65;1.58;;;16.60;84.70;;;;;;5066844;28;20116;-77
2023/04/30 10:45:41;;;;;;;3.20;1.60;;;16.70;84.00;;;;;;5072770;28;20107;-77
2023/04/30 10:48:08;;;;;;;3.63;1.95;;;17.00;82.80;;;;;;5073154;28;20025;-77
2023/04/30 10:50:40;;;;;;;3.92;2.08;;;17.10;81.70;;;;;;5073408;28;20094;-77
2023/04/30 10:53:06;;;;;;;4.13;1.88;;;17.40;80.60;;;;;;5074209;28;20029;-85
2023/04/30 10:55:32;;;;;;;5.00;1.77;;;17.60;80.10;;;;;;5055782;28;20602;-87
2023/04/30 10:57:58;;;;;;;3.38;1.77;;;17.80;79.50;;;;;;5067347;28;20021;-85
2023/04/30 11:00:28;;;;;;;3.33;1.50;;;17.90;78.70;;;;;;5068410;28;20053;-85
2023/04/30 11:03:02;;;;;;;2.67;1.42;;;18.10;77.90;;;;;;5056455;28;20465;-84
2023/04/30 11:05:38;;;;;;;3.85;1.42;;;18.40;76.70;;;;;;5059201;28;20031;-78
2023/04/30 11:08:05;;;;;;;3.50;1.60;;;18.70;75.60;;;;;;5073469;28;20040;-78
2023/04/30 11:10:34;;;;;;;5.20;1.42;;;18.90;75.20;;;;;;5073593;28;20060;-78
2023/04/30 11:13:09;;;;;;;3.30;1.15;;;19.10;73.70;;;;;;5073884;28;20029;-78
2023/04/30 11:15:40;;;;;;;6.03;1.83;;;19.40;72.70;;;;;;5073850;28;20024;-78
2023/04/30 11:18:07;;;;;;;3.60;0.98;;;19.60;71.50;;;;;;5073382;28;20033;-78
2023/04/30 11:20:40;;;;;;;3.28;1.67;;;19.80;71.60;;;;;;5072287;28;20020;-78
2023/04/30 11:23:14;;;;;;;2.42;1.20;;;20.00;69.70;;;;;;5052392;28;20025;-78
2023/04/30 11:25:45;;;;;;;4.15;1.13;;;20.20;68.80;;;;;;5068143;28;20031;-78
2023/04/30 11:28:24;;;;;;;3.33;1.00;;;20.50;68.20;;;;;;5060099;28;20025;-79
2023/04/30 11:30:53;;;;;;;3.30;1.20;;;20.70;67.00;;;;;;5068758;28;20513;-84
2023/04/30 11:33:20;;;;;;;3.10;1.30;;;21.00;66.70;;;;;;5060719;28;20033;-87
2023/04/30 11:35:50;;;;;;;3.78;1.30;;;21.20;65.70;;;;;;5057809;28;20032;-85
2023/04/30 11:38:17;;;;;;;3.33;1.20;;;21.50;64.90;;;;;;5071919;28;20029;-83
2023/04/30 11:40:43;;;;;;;2.45;1.25;;;21.60;64.30;;;;;;5048540;28;20033;-86
2023/04/30 11:43:27;;;;;;;3.05;1.10;;;21.90;63.50;;;;;;5071674;28;20052;-86
2023/04/30 11:46:12;;;;;;;3.70;1.25;;;22.10;62.00;;;;;;5064484;28;20393;-86
2023/04/30 11:48:48;;;;;;;3.65;1.20;;;22.30;61.50;;;;;;5072084;28;20027;-86
2023/04/30 11:51:21;;;;;;;8.00;1.40;;;22.40;61.20;;;;;;5063788;28;20099;-86
2023/04/30 11:53:49;;;;;;;2.83;1.20;;;22.60;60.30;;;;;;5059362;28;20032;-86
2023/04/30 11:56:23;;;;;;;3.33;1.40;;;22.80;60.00;;;;;;5070677;28;20761;-85
2023/04/30 11:58:50;;;;;;;3.95;0.88;;;23.00;59.30;;;;;;5068345;28;20366;-86
2023/04/30 12:01:16;;;;;;;3.70;0.90;;;23.20;59.10;;;;;;5076085;28;20029;-86
2023/04/30 12:03:43;;;;;;;3.47;0.93;;;23.40;58.50;;;;;;5076134;28;20508;-86
2023/04/30 12:06:26;;;;;;;2.40;0.80;;;23.60;58.00;;;;;;5072814;28;20033;-86
2023/04/30 12:08:56;;;;;;;3.67;1.07;;;23.70;57.40;;;;;;5082456;28;20097;-85
2023/04/30 12:11:24;;;;;;;2.50;0.70;;;24.00;56.80;;;;;;5075668;28;20024;-86
2023/04/30 12:13:54;;;;;;;2.53;0.80;;;24.20;56.20;;;;;;5077358;28;20033;-85
2023/04/30 12:16:20;;;;;;;2.38;0.80;;;24.50;55.30;;;;;;5063885;28;20107;-85
2023/04/30 12:18:46;;;;;;;2.35;0.88;;;24.70;54.80;;;;;;5076724;28;20488;-82
2023/04/30 12:21:13;;;;;;;2.25;0.70;;;24.90;54.10;;;;;;5045426;28;20362;-86
2023/04/30 12:23:39;;;;;;;3.10;0.80;;;25.00;53.50;;;;;;5075732;28;20029;-85
2023/04/30 12:26:05;;;;;;;2.63;0.77;;;25.20;53.10;;;;;;5075409;28;20476;-86
2023/04/30 12:28:30;;;;;;;2.75;0.80;;;25.40;52.60;;;;;;5075390;28;20025;-86
2023/04/30 12:30:56;;;;;;;2.13;0.60;;;25.50;52.30;;;;;;5058644;28;20502;-86
2023/04/30 12:33:21;;;;;;;1.90;0.70;;;25.80;51.90;;;;;;5075930;28;20055;-87
2023/04/30 12:35:47;;;;;;;3.10;0.57;;;26.00;51.30;;;;;;5072482;28;20025;-87
2023/04/30 12:38:17;;;;;;;1.10;0.50;;;26.10;51.00;;;;;;5055524;28;20041;-87
2023/04/30 12:40:47;;;;;;;1.10;0.50;;;26.30;50.80;;;;;;5075589;28;20016;-88
2023/04/30 12:43:15;;;;;;;1.10;0.40;;;26.40;50.20;;;;;;5075284;28;20081;-87
2023/04/30 12:46:07;;;;;;;1.00;0.52;;;26.70;49.70;;;;;;5075355;28;20016;-89
2023/04/30 12:48:46;;;;;;;1.52;0.50;;;26.90;48.40;;;;;;5069861;28;20044;-86
2023/04/30 12:51:11;;;;;;;1.55;0.40;;;27.10;48.30;;;;;;5068148;28;20029;-89
2023/04/30 12:53:45;;;;;;;1.33;0.40;;;27.20;48.30;;;;;;5058405;28;20224;-87